Time;durP1;ratioP1;P1;durP2;ratioP2;P2;SDS_P1;SDS_P2;PMS_P1;PMS_P2;Temp;Humidity;BMP_temperature;BMP_pressure;BME280_temperature;BME280_humidity;BME280_pressure;Samples;Min_cycle;Max_cycle;Signal;HPM_P1;HPM_P2
2024/02/18 00:00:17;;;;;;;9.07;3.15;;;;;;;;;;5017237;28;20477;-61
2024/02/18 00:02:44;;;;;;;4.65;3.35;;;;;;;;;;5023983;28;20417;-61
2024/02/18 00:05:12;;;;;;;3.72;2.70;;;;;;;;;;5020572;28;20083;-64
2024/02/18 00:07:39;;;;;;;5.72;3.17;;;;;;;;;;5022127;28;20033;-63
2024/02/18 00:10:05;;;;;;;7.53;3.28;;;;;;;;;;5019666;28;20030;-60
2024/02/18 00:12:31;;;;;;;8.57;3.25;;;;;;;;;;5022350;28;20595;-61
2024/02/18 00:14:58;;;;;;;6.95;3.03;;;;;;;;;;5021494;28;20112;-61
2024/02/18 00:17:24;;;;;;;6.95;3.67;;;;;;;;;;5021753;28;20038;-61
2024/02/18 00:19:50;;;;;;;7.22;3.67;;;;;;;;;;5004141;28;20037;-62
2024/02/18 00:22:16;;;;;;;5.90;3.88;;;;;;;;;;5021184;28;20033;-60
2024/02/18 00:24:42;;;;;;;6.95;3.55;;;;;;;;;;5020439;28;20629;-61
2024/02/18 00:27:10;;;;;;;5.07;3.88;;;;;;;;;;5022446;28;20030;-61
2024/02/18 00:29:36;;;;;;;10.85;4.05;;;;;;;;;;5019572;28;20029;-60
2024/02/18 00:32:03;;;;;;;3.90;3.05;;;;;;;;;;5019184;28;20029;-61
2024/02/18 00:34:30;;;;;;;7.95;2.92;;;;;;;;;;5018008;28;20022;-64
2024/02/18 00:36:56;;;;;;;6.95;3.35;;;;;;;;;;5018838;28;20039;-61
2024/02/18 00:39:22;;;;;;;7.97;3.35;;;;;;;;;;5002625;28;20424;-61
2024/02/18 00:41:49;;;;;;;7.50;3.20;;;;;;;;;;5002261;28;20311;-61
2024/02/18 00:44:15;;;;;;;13.18;2.95;;;;;;;;;;5020217;28;20088;-61
2024/02/18 00:46:41;;;;;;;6.93;2.95;;;;;;;;;;5020531;28;20286;-61
2024/02/18 00:49:07;;;;;;;3.83;2.88;;;;;;;;;;5019846;28;20026;-65
2024/02/18 00:51:34;;;;;;;9.80;2.97;;;;;;;;;;5018045;28;20025;-60
2024/02/18 00:54:00;;;;;;;8.65;2.60;;;;;;;;;;5018946;28;20021;-60
2024/02/18 00:56:26;;;;;;;8.93;2.70;;;;;;;;;;5022158;28;20065;-62
2024/02/18 00:58:53;;;;;;;8.35;3.10;;;;;;;;;;5021559;28;20033;-60
2024/02/18 01:01:19;;;;;;;4.25;2.50;;;;;;;;;;5012800;28;20033;-61
2024/02/18 01:03:45;;;;;;;8.45;3.05;;;;;;;;;;5016025;28;20033;-61
2024/02/18 01:06:12;;;;;;;13.15;2.85;;;;;;;;;;5020846;28;20501;-60
2024/02/18 01:08:38;;;;;;;4.22;2.60;;;;;;;;;;5015081;28;20128;-60
2024/02/18 01:11:05;;;;;;;4.25;2.60;;;;;;;;;;5014840;28;20025;-61
2024/02/18 01:13:31;;;;;;;9.88;3.33;;;;;;;;;;5017036;28;20033;-60
2024/02/18 01:15:58;;;;;;;5.80;2.92;;;;;;;;;;5005832;28;20026;-61
2024/02/18 01:18:25;;;;;;;11.55;2.70;;;;;;;;;;5023057;28;20128;-62
2024/02/18 01:20:51;;;;;;;4.82;2.80;;;;;;;;;;5017659;28;20044;-60
2024/02/18 01:23:18;;;;;;;7.10;3.17;;;;;;;;;;5020396;28;20029;-61
2024/02/18 01:25:44;;;;;;;10.25;3.13;;;;;;;;;;5023543;28;20073;-60
2024/02/18 01:28:10;;;;;;;13.27;2.90;;;;;;;;;;5021959;28;20464;-61
2024/02/18 01:30:36;;;;;;;3.28;2.40;;;;;;;;;;5022416;28;20037;-61
2024/02/18 01:33:03;;;;;;;5.18;3.22;;;;;;;;;;5019553;28;20036;-61
2024/02/18 01:35:30;;;;;;;8.10;2.97;;;;;;;;;;5013385;28;20362;-61
2024/02/18 01:37:56;;;;;;;7.90;2.92;;;;;;;;;;5021464;28;20086;-63
2024/02/18 01:40:23;;;;;;;5.05;3.90;;;;;;;;;;5003821;28;20029;-61
2024/02/18 01:42:49;;;;;;;9.35;3.22;;;;;;;;;;5017850;28;20950;-60
2024/02/18 01:45:15;;;;;;;11.13;3.78;;;;;;;;;;5014403;28;20270;-64
2024/02/18 01:47:43;;;;;;;6.47;3.17;;;;;;;;;;5017926;28;20452;-61
2024/02/18 01:50:09;;;;;;;9.80;3.28;;;;;;;;;;5019288;28;20557;-61
2024/02/18 01:52:36;;;;;;;9.25;3.47;;;;;;;;;;5018323;28;20034;-61
2024/02/18 01:55:03;;;;;;;6.13;2.65;;;;;;;;;;5003337;28;20053;-61
2024/02/18 01:57:30;;;;;;;11.10;3.47;;;;;;;;;;5017609;28;20039;-62
2024/02/18 01:59:57;;;;;;;10.40;3.28;;;;;;;;;;5022974;28;20496;-62
2024/02/18 02:02:23;;;;;;;12.05;3.53;;;;;;;;;;5021950;28;20037;-61
2024/02/18 02:04:51;;;;;;;12.23;2.75;;;;;;;;;;5013880;28;20034;-65
2024/02/18 02:07:19;;;;;;;9.48;3.33;;;;;;;;;;5022943;28;20449;-62
2024/02/18 02:09:46;;;;;;;9.35;3.33;;;;;;;;;;4985350;28;20164;-61
2024/02/18 02:12:12;;;;;;;12.23;3.22;;;;;;;;;;5016070;28;20496;-61
2024/02/18 02:14:38;;;;;;;8.20;2.85;;;;;;;;;;5002528;28;20136;-61
2024/02/18 02:17:05;;;;;;;21.30;3.67;;;;;;;;;;5016637;28;20160;-61
2024/02/18 02:19:31;;;;;;;6.18;3.60;;;;;;;;;;5000264;28;20025;-61
2024/02/18 02:21:57;;;;;;;10.50;3.00;;;;;;;;;;5017793;28;20053;-61
2024/02/18 02:24:24;;;;;;;13.60;4.00;;;;;;;;;;5019501;28;20041;-61
2024/02/18 02:26:51;;;;;;;13.52;4.70;;;;;;;;;;5017205;28;20041;-61
2024/02/18 02:29:17;;;;;;;7.90;4.43;;;;;;;;;;5015520;28;20471;-61
2024/02/18 02:31:47;;;;;;;13.63;4.40;;;;;;;;;;5015007;28;20136;-63
2024/02/18 02:34:14;;;;;;;7.45;4.85;;;;;;;;;;5019144;28;20526;-60
2024/02/18 02:36:40;;;;;;;15.75;6.50;;;;;;;;;;4987122;28;20120;-64
2024/02/18 02:39:11;;;;;;;16.10;6.57;;;;;;;;;;5002081;28;20079;-61
2024/02/18 02:41:38;;;;;;;8.40;5.15;;;;;;;;;;5021072;28;20029;-61
2024/02/18 02:44:04;;;;;;;16.65;6.20;;;;;;;;;;5018845;28;20535;-61
2024/02/18 02:46:31;;;;;;;7.93;4.15;;;;;;;;;;5012697;28;20535;-62
2024/02/18 02:48:57;;;;;;;15.32;4.53;;;;;;;;;;5018463;28;20020;-60
2024/02/18 02:51:24;;;;;;;15.55;4.40;;;;;;;;;;5022649;28;20108;-61
2024/02/18 02:53:50;;;;;;;8.50;3.47;;;;;;;;;;5000966;28;20488;-60
2024/02/18 02:56:16;;;;;;;9.77;3.08;;;;;;;;;;5022965;28;20555;-60
2024/02/18 02:58:42;;;;;;;10.93;3.42;;;;;;;;;;5010777;28;20084;-60
2024/02/18 03:01:09;;;;;;;14.25;4.38;;;;;;;;;;5019609;28;20663;-60
2024/02/18 03:03:35;;;;;;;10.05;3.25;;;;;;;;;;5020726;28;20030;-60
2024/02/18 03:06:01;;;;;;;5.53;3.13;;;;;;;;;;5004203;28;20049;-62
2024/02/18 03:08:28;;;;;;;3.15;2.45;;;;;;;;;;5018945;28;20022;-60
2024/02/18 03:10:54;;;;;;;8.52;2.63;;;;;;;;;;5022790;28;20506;-60
2024/02/18 03:13:20;;;;;;;12.85;3.13;;;;;;;;;;5017859;28;20484;-61
2024/02/18 03:15:47;;;;;;;17.55;3.90;;;;;;;;;;5022128;28;20045;-61
2024/02/18 03:18:14;;;;;;;6.15;2.72;;;;;;;;;;5025609;28;20036;-60
2024/02/18 03:20:41;;;;;;;8.02;2.65;;;;;;;;;;5007557;28;20404;-61
2024/02/18 03:23:07;;;;;;;11.48;2.67;;;;;;;;;;5009402;28;20021;-60
2024/02/18 03:25:34;;;;;;;8.88;2.47;;;;;;;;;;5022157;28;20120;-62
2024/02/18 03:28:00;;;;;;;2.50;2.30;;;;;;;;;;5022549;28;20025;-60
2024/02/18 03:30:27;;;;;;;8.00;3.20;;;;;;;;;;5019024;28;20033;-61
2024/02/18 03:32:53;;;;;;;8.18;2.75;;;;;;;;;;5023951;28;20033;-60
2024/02/18 03:35:27;;;;;;;3.78;2.80;;;;;;;;;;5020892;28;20034;-60
2024/02/18 03:37:55;;;;;;;9.50;3.13;;;;;;;;;;5008187;28;20048;-64
2024/02/18 03:40:21;;;;;;;8.27;3.25;;;;;;;;;;5021609;28;20037;-61
2024/02/18 03:42:48;;;;;;;11.10;4.43;;;;;;;;;;5021514;28;20021;-61
2024/02/18 03:45:14;;;;;;;6.95;2.50;;;;;;;;;;5020175;28;20490;-61
2024/02/18 03:47:41;;;;;;;10.20;3.58;;;;;;;;;;5028372;28;20080;-60
2024/02/18 03:50:10;;;;;;;5.60;3.20;;;;;;;;;;5024729;28;20685;-60
2024/02/18 03:52:37;;;;;;;11.10;2.95;;;;;;;;;;5025682;28;20041;-60
2024/02/18 03:55:03;;;;;;;14.80;3.25;;;;;;;;;;5018552;28;20071;-61
2024/02/18 03:57:30;;;;;;;8.43;2.90;;;;;;;;;;5025026;28;20034;-60
2024/02/18 03:59:56;;;;;;;11.82;3.60;;;;;;;;;;5021974;28;20697;-61
2024/02/18 04:02:24;;;;;;;8.73;3.22;;;;;;;;;;5021997;28;20039;-61
2024/02/18 04:04:50;;;;;;;7.28;2.97;;;;;;;;;;5020228;28;20076;-64
2024/02/18 04:07:17;;;;;;;8.05;4.63;;;;;;;;;;5021535;28;20397;-62
2024/02/18 04:09:43;;;;;;;10.63;3.08;;;;;;;;;;5022727;28;20405;-61
2024/02/18 04:12:10;;;;;;;11.40;3.42;;;;;;;;;;5008903;28;20042;-61
2024/02/18 04:14:36;;;;;;;19.70;3.42;;;;;;;;;;5016839;28;20029;-66
2024/02/18 04:17:03;;;;;;;15.50;4.10;;;;;;;;;;5024399;28;20025;-62
2024/02/18 04:19:29;;;;;;;8.35;2.63;;;;;;;;;;5025427;28;20025;-61
2024/02/18 04:21:55;;;;;;;9.80;2.83;;;;;;;;;;5022942;28;20026;-61
2024/02/18 04:24:21;;;;;;;10.77;3.17;;;;;;;;;;5017084;28;20029;-63
2024/02/18 04:26:48;;;;;;;9.80;3.33;;;;;;;;;;5003961;28;20032;-62
2024/02/18 04:29:14;;;;;;;6.40;3.50;;;;;;;;;;5026136;28;20068;-61
2024/02/18 04:31:43;;;;;;;13.02;4.13;;;;;;;;;;5019263;28;20033;-61
2024/02/18 04:34:09;;;;;;;11.98;3.90;;;;;;;;;;5007252;28;21019;-61
2024/02/18 04:36:36;;;;;;;15.00;3.90;;;;;;;;;;5024785;28;20052;-61
2024/02/18 04:39:02;;;;;;;9.50;2.92;;;;;;;;;;5024757;28;20090;-61
2024/02/18 04:41:28;;;;;;;16.92;3.03;;;;;;;;;;5018004;28;20040;-61
2024/02/18 04:43:55;;;;;;;12.05;3.60;;;;;;;;;;5020738;28;20059;-61
2024/02/18 04:46:21;;;;;;;7.63;2.40;;;;;;;;;;5016827;28;20053;-60
2024/02/18 04:48:47;;;;;;;10.05;2.83;;;;;;;;;;5001902;28;20471;-61
2024/02/18 04:51:13;;;;;;;8.40;2.55;;;;;;;;;;5018709;28;20024;-65
2024/02/18 04:53:40;;;;;;;10.02;3.50;;;;;;;;;;5020093;28;20346;-61
2024/02/18 04:56:06;;;;;;;10.75;2.88;;;;;;;;;;4999464;28;20040;-64
2024/02/18 04:58:33;;;;;;;26.50;4.68;;;;;;;;;;5021674;28;20456;-61
2024/02/18 05:01:00;;;;;;;7.35;2.92;;;;;;;;;;5023953;28;20036;-61
2024/02/18 05:03:26;;;;;;;12.20;2.80;;;;;;;;;;5020234;28;20065;-61
2024/02/18 05:05:52;;;;;;;10.48;2.80;;;;;;;;;;5005757;28;20030;-62
2024/02/18 05:08:19;;;;;;;13.38;3.20;;;;;;;;;;5019547;28;20258;-61
2024/02/18 05:10:45;;;;;;;13.23;3.83;;;;;;;;;;5023404;28;20033;-61
2024/02/18 05:13:11;;;;;;;6.65;2.90;;;;;;;;;;5015700;28;20037;-66
2024/02/18 05:15:37;;;;;;;5.80;2.90;;;;;;;;;;5014249;28;20033;-62
2024/02/18 05:18:04;;;;;;;6.57;3.58;;;;;;;;;;5019584;28;20041;-61
2024/02/18 05:20:30;;;;;;;12.48;3.58;;;;;;;;;;5015838;28;20029;-61
2024/02/18 05:22:57;;;;;;;13.70;3.60;;;;;;;;;;5022983;28;20029;-61
2024/02/18 05:25:23;;;;;;;14.05;3.78;;;;;;;;;;5019753;28;20028;-62
2024/02/18 05:27:50;;;;;;;13.48;4.15;;;;;;;;;;5001830;28;20566;-62
2024/02/18 05:30:16;;;;;;;8.05;3.30;;;;;;;;;;5014491;28;20036;-61
2024/02/18 05:32:42;;;;;;;7.43;2.47;;;;;;;;;;5019561;28;20035;-61
2024/02/18 05:35:09;;;;;;;5.32;2.92;;;;;;;;;;5020641;28;20025;-61
2024/02/18 05:37:39;;;;;;;8.32;3.33;;;;;;;;;;5021947;28;20089;-65
2024/02/18 05:40:06;;;;;;;9.05;2.83;;;;;;;;;;5001208;28;20049;-61
2024/02/18 05:42:35;;;;;;;8.48;3.83;;;;;;;;;;5018887;28;20078;-61
2024/02/18 05:45:02;;;;;;;14.23;3.65;;;;;;;;;;5005593;28;20053;-60
2024/02/18 05:47:29;;;;;;;14.15;3.25;;;;;;;;;;5014565;28;20402;-66
2024/02/18 05:49:55;;;;;;;12.25;4.22;;;;;;;;;;5019298;28;20033;-63
2024/02/18 05:52:21;;;;;;;12.13;5.25;;;;;;;;;;5020157;28;20057;-65
2024/02/18 05:54:47;;;;;;;21.52;4.88;;;;;;;;;;5023764;28;20518;-62
2024/02/18 05:57:14;;;;;;;12.75;3.88;;;;;;;;;;5023632;28;20461;-62
2024/02/18 05:59:40;;;;;;;11.88;4.80;;;;;;;;;;5017088;28;20397;-61
2024/02/18 06:02:21;;;;;;;8.82;4.13;;;;;;;;;;5088719;27;20981;-61
2024/02/18 06:04:48;;;;;;;17.25;3.70;;;;;;;;;;5089927;28;20030;-61
2024/02/18 06:07:14;;;;;;;7.03;3.80;;;;;;;;;;5106569;28;20080;-61
2024/02/18 06:09:40;;;;;;;11.98;4.60;;;;;;;;;;5092423;28;20530;-61
2024/02/18 06:12:07;;;;;;;23.10;5.95;;;;;;;;;;5091601;28;20028;-61
2024/02/18 06:14:33;;;;;;;14.85;5.25;;;;;;;;;;5082335;28;20117;-60
2024/02/18 06:17:00;;;;;;;11.52;3.83;;;;;;;;;;5088458;28;20077;-61
2024/02/18 06:19:26;;;;;;;8.15;4.05;;;;;;;;;;5090573;28;20033;-60
2024/02/18 06:21:52;;;;;;;24.80;3.90;;;;;;;;;;5094361;28;20502;-61
2024/02/18 06:24:18;;;;;;;9.02;3.83;;;;;;;;;;5093081;28;20500;-62
2024/02/18 06:26:45;;;;;;;15.52;4.15;;;;;;;;;;5086753;28;20073;-60
2024/02/18 06:29:11;;;;;;;17.55;4.00;;;;;;;;;;5088533;28;20516;-62
2024/02/18 06:31:37;;;;;;;16.20;4.20;;;;;;;;;;5088130;28;20024;-62
2024/02/18 06:34:03;;;;;;;9.65;4.07;;;;;;;;;;5089189;28;20028;-61
2024/02/18 06:36:35;;;;;;;8.50;3.42;;;;;;;;;;5088841;28;20465;-61
2024/02/18 06:39:03;;;;;;;7.70;3.22;;;;;;;;;;5084961;28;20023;-61
2024/02/18 06:41:29;;;;;;;8.63;3.65;;;;;;;;;;5090241;28;20583;-62
2024/02/18 06:43:55;;;;;;;11.27;4.68;;;;;;;;;;5084654;28;20043;-61
2024/02/18 06:46:21;;;;;;;13.98;3.60;;;;;;;;;;5092698;28;20016;-61
2024/02/18 06:48:51;;;;;;;12.80;3.17;;;;;;;;;;5087792;28;20024;-62
2024/02/18 06:51:18;;;;;;;16.08;3.83;;;;;;;;;;5084335;28;20450;-61
2024/02/18 06:53:44;;;;;;;16.55;3.72;;;;;;;;;;5071670;28;20435;-61
2024/02/18 06:56:10;;;;;;;10.13;3.90;;;;;;;;;;5090709;28;20437;-61
2024/02/18 06:58:36;;;;;;;9.38;3.17;;;;;;;;;;5089349;28;20034;-61
2024/02/18 07:01:02;;;;;;;10.40;3.88;;;;;;;;;;5084568;28;20049;-65
2024/02/18 07:03:29;;;;;;;5.95;4.05;;;;;;;;;;5084904;28;20032;-62
2024/02/18 07:05:55;;;;;;;4.38;2.67;;;;;;;;;;5085698;28;20029;-62
2024/02/18 07:08:21;;;;;;;5.88;3.40;;;;;;;;;;5088827;28;20032;-61
2024/02/18 07:10:47;;;;;;;14.25;3.58;;;;;;;;;;5087668;28;20028;-61
2024/02/18 07:13:14;;;;;;;16.35;4.30;;;;;;;;;;5075591;28;20071;-62
2024/02/18 07:15:40;;;;;;;8.23;3.13;;;;;;;;;;5074175;28;20560;-61
2024/02/18 07:18:07;;;;;;;8.00;2.50;;;;;;;;;;5068559;28;20028;-61
2024/02/18 07:20:34;;;;;;;8.02;2.85;;;;;;;;;;5072080;28;20051;-62
2024/02/18 07:23:00;;;;;;;12.27;3.55;;;;;;;;;;5059267;28;20039;-64
2024/02/18 07:25:26;;;;;;;6.78;3.35;;;;;;;;;;5069881;28;20028;-61
2024/02/18 07:27:53;;;;;;;8.52;2.50;;;;;;;;;;5074599;28;20028;-62
2024/02/18 07:30:19;;;;;;;13.68;3.60;;;;;;;;;;5063013;28;20097;-62
2024/02/18 07:32:46;;;;;;;11.35;3.83;;;;;;;;;;5072621;28;20028;-61
2024/02/18 07:35:13;;;;;;;8.93;3.45;;;;;;;;;;5065306;28;20046;-61
2024/02/18 07:37:40;;;;;;;3.53;2.50;;;;;;;;;;5072438;28;20036;-62
2024/02/18 07:40:07;;;;;;;10.23;3.22;;;;;;;;;;5075489;28;20552;-62
2024/02/18 07:42:34;;;;;;;3.88;2.80;;;;;;;;;;5067973;28;20047;-61
2024/02/18 07:45:00;;;;;;;7.88;3.08;;;;;;;;;;5073555;28;20036;-61
2024/02/18 07:47:26;;;;;;;9.80;3.08;;;;;;;;;;5073722;28;20112;-61
2024/02/18 07:49:53;;;;;;;7.45;2.80;;;;;;;;;;5071088;28;20052;-61
2024/02/18 07:52:19;;;;;;;10.55;2.65;;;;;;;;;;5077340;28;20020;-62
2024/02/18 07:54:57;;;;;;;7.15;2.95;;;;;;;;;;5068302;28;20024;-60
2024/02/18 07:57:23;;;;;;;4.20;2.53;;;;;;;;;;5070064;28;20032;-63
2024/02/18 07:59:54;;;;;;;8.40;3.05;;;;;;;;;;5063938;28;20048;-61
2024/02/18 08:02:21;;;;;;;7.55;3.58;;;;;;;;;;5058008;28;20040;-62
2024/02/18 08:04:47;;;;;;;7.38;3.35;;;;;;;;;;5070822;28;20112;-61
2024/02/18 08:07:13;;;;;;;11.23;3.67;;;;;;;;;;5069369;28;20016;-61
2024/02/18 08:09:39;;;;;;;14.65;3.00;;;;;;;;;;5070876;28;20040;-61
2024/02/18 08:12:07;;;;;;;12.73;3.33;;;;;;;;;;5074657;28;20118;-63
2024/02/18 08:14:34;;;;;;;12.32;3.35;;;;;;;;;;5071758;28;20036;-61
2024/02/18 08:17:00;;;;;;;5.80;2.70;;;;;;;;;;5084903;28;20025;-62
2024/02/18 08:19:26;;;;;;;15.18;3.30;;;;;;;;;;5068577;28;20043;-61
2024/02/18 08:21:52;;;;;;;7.85;2.88;;;;;;;;;;5067630;28;20028;-61
2024/02/18 08:24:18;;;;;;;8.73;3.20;;;;;;;;;;5069045;28;20032;-61
2024/02/18 08:26:45;;;;;;;9.32;3.05;;;;;;;;;;5065508;28;20650;-61
2024/02/18 08:29:11;;;;;;;9.90;3.90;;;;;;;;;;5071409;28;20023;-62
2024/02/18 08:31:38;;;;;;;9.68;3.28;;;;;;;;;;5069533;28;20368;-61
2024/02/18 08:34:05;;;;;;;12.57;3.88;;;;;;;;;;5070474;28;20081;-61
2024/02/18 08:36:31;;;;;;;7.30;2.97;;;;;;;;;;5066037;28;20037;-61
2024/02/18 08:38:57;;;;;;;8.52;3.10;;;;;;;;;;5071178;28;20355;-62
2024/02/18 08:41:25;;;;;;;12.15;3.45;;;;;;;;;;5059413;28;20491;-61
2024/02/18 08:43:53;;;;;;;4.47;2.38;;;;;;;;;;5064497;28;20550;-61
2024/02/18 08:46:19;;;;;;;11.43;3.20;;;;;;;;;;5070034;28;20087;-61
2024/02/18 08:48:46;;;;;;;13.60;3.00;;;;;;;;;;5066118;28;20028;-61
2024/02/18 08:51:12;;;;;;;14.65;4.03;;;;;;;;;;5074100;28;20032;-61
2024/02/18 08:53:40;;;;;;;19.48;4.20;;;;;;;;;;5068141;28;20028;-61
2024/02/18 08:56:10;;;;;;;10.45;3.38;;;;;;;;;;5071037;28;20376;-61
2024/02/18 08:58:37;;;;;;;5.85;3.75;;;;;;;;;;5069697;28;20031;-61
2024/02/18 09:01:03;;;;;;;9.38;3.17;;;;;;;;;;5067640;28;20045;-61
2024/02/18 09:03:31;;;;;;;5.28;2.58;;;;;;;;;;5070642;28;20024;-61
2024/02/18 09:05:57;;;;;;;10.40;3.47;;;;;;;;;;5066615;28;20056;-61
2024/02/18 09:08:24;;;;;;;11.50;2.67;;;;;;;;;;5066665;28;20029;-61
2024/02/18 09:10:53;;;;;;;5.07;3.55;;;;;;;;;;5067438;28;20043;-62
2024/02/18 09:13:20;;;;;;;6.78;2.67;;;;;;;;;;5070365;28;20035;-61
2024/02/18 09:15:48;;;;;;;16.40;4.90;;;;;;;;;;5076560;28;20162;-62
2024/02/18 09:18:14;;;;;;;13.07;3.75;;;;;;;;;;5067619;28;20400;-61
2024/02/18 09:20:41;;;;;;;10.90;3.72;;;;;;;;;;5074938;28;20421;-62
2024/02/18 09:23:07;;;;;;;7.60;3.20;;;;;;;;;;5076982;28;20494;-62
2024/02/18 09:25:37;;;;;;;3.72;2.55;;;;;;;;;;5077836;28;20031;-62
2024/02/18 09:28:03;;;;;;;4.72;2.85;;;;;;;;;;5070451;28;20431;-62
2024/02/18 09:30:30;;;;;;;11.40;3.55;;;;;;;;;;5077846;28;20464;-62
2024/02/18 09:32:56;;;;;;;12.75;3.58;;;;;;;;;;5073980;28;20040;-62
2024/02/18 09:35:22;;;;;;;5.57;2.78;;;;;;;;;;5077631;28;20028;-63
2024/02/18 09:37:49;;;;;;;10.73;2.92;;;;;;;;;;5074031;28;20028;-62
2024/02/18 09:40:15;;;;;;;6.90;2.53;;;;;;;;;;5072486;28;20632;-62
2024/02/18 09:42:42;;;;;;;11.93;2.85;;;;;;;;;;5075959;28;20367;-62
2024/02/18 09:45:11;;;;;;;13.50;3.10;;;;;;;;;;5072946;28;20032;-62
2024/02/18 09:47:40;;;;;;;5.90;3.22;;;;;;;;;;5071903;28;20522;-62
2024/02/18 09:50:09;;;;;;;12.95;3.78;;;;;;;;;;5068759;28;20730;-62
2024/02/18 09:52:39;;;;;;;10.70;2.88;;;;;;;;;;5061507;28;20033;-63
2024/02/18 09:55:07;;;;;;;4.35;2.92;;;;;;;;;;5071876;28;20027;-62
2024/02/18 09:57:33;;;;;;;2.80;2.17;;;;;;;;;;5071843;28;20037;-62
2024/02/18 09:59:59;;;;;;;5.13;3.28;;;;;;;;;;5073558;28;20031;-62
2024/02/18 10:02:27;;;;;;;8.77;3.33;;;;;;;;;;5073034;28;20040;-62
2024/02/18 10:04:53;;;;;;;7.40;2.38;;;;;;;;;;5077444;28;20016;-62
2024/02/18 10:07:19;;;;;;;2.70;2.45;;;;;;;;;;5072617;28;20293;-62
2024/02/18 10:09:46;;;;;;;15.25;2.63;;;;;;;;;;5075763;28;20028;-63
2024/02/18 10:12:12;;;;;;;7.40;3.00;;;;;;;;;;5077531;28;20585;-73
2024/02/18 10:14:38;;;;;;;5.57;2.45;;;;;;;;;;5079428;28;20028;-62
2024/02/18 10:17:04;;;;;;;9.48;3.30;;;;;;;;;;5071211;28;20028;-62
2024/02/18 10:19:31;;;;;;;6.95;2.72;;;;;;;;;;5067183;28;20092;-64
2024/02/18 10:22:00;;;;;;;7.25;4.22;;;;;;;;;;5068239;28;20036;-62
2024/02/18 10:24:26;;;;;;;7.18;4.00;;;;;;;;;;5071915;28;20012;-62
2024/02/18 10:26:57;;;;;;;13.88;4.60;;;;;;;;;;5069195;28;20129;-62
2024/02/18 10:29:27;;;;;;;5.78;3.15;;;;;;;;;;5074248;28;20012;-62
2024/02/18 10:31:53;;;;;;;7.97;3.80;;;;;;;;;;5072839;28;20604;-63
2024/02/18 10:34:19;;;;;;;8.98;4.15;;;;;;;;;;5075043;28;20041;-62
2024/02/18 10:36:48;;;;;;;5.90;3.47;;;;;;;;;;5069080;28;20043;-62
2024/02/18 10:39:16;;;;;;;6.38;3.05;;;;;;;;;;5073625;28;20026;-63
2024/02/18 10:41:53;;;;;;;4.95;3.20;;;;;;;;;;5069845;28;20415;-62
2024/02/18 10:44:19;;;;;;;7.45;3.25;;;;;;;;;;5070102;28;20024;-63
2024/02/18 10:46:51;;;;;;;8.73;3.35;;;;;;;;;;5075464;28;20058;-61
2024/02/18 10:49:44;;;;;;;11.02;3.20;;;;;;;;;;5075427;28;20528;-62
2024/02/18 10:52:37;;;;;;;7.03;3.72;;;;;;;;;;5070790;28;20078;-62
2024/02/18 10:55:03;;;;;;;10.18;4.20;;;;;;;;;;5069734;28;20098;-62
2024/02/18 10:57:31;;;;;;;9.23;5.47;;;;;;;;;;5063327;28;20372;-63
2024/02/18 11:00:07;;;;;;;18.98;6.40;;;;;;;;;;5081064;28;20352;-63
2024/02/18 11:02:52;;;;;;;10.52;3.72;;;;;;;;;;5074658;28;20582;-62
2024/02/18 11:05:24;;;;;;;9.15;4.55;;;;;;;;;;5061261;28;20323;-62
2024/02/18 11:07:51;;;;;;;7.13;3.25;;;;;;;;;;5077677;28;20270;-62
2024/02/18 11:10:17;;;;;;;6.22;2.90;;;;;;;;;;5076731;28;20024;-62
2024/02/18 11:12:46;;;;;;;7.25;3.65;;;;;;;;;;5075921;28;20497;-62
2024/02/18 11:15:12;;;;;;;6.47;2.30;;;;;;;;;;5076176;28;20024;-62
2024/02/18 11:17:40;;;;;;;5.97;2.83;;;;;;;;;;5076455;28;20035;-63
2024/02/18 11:20:09;;;;;;;8.13;2.83;;;;;;;;;;5077395;28;20028;-62
2024/02/18 11:22:36;;;;;;;5.38;2.55;;;;;;;;;;5074469;28;20119;-62
2024/02/18 11:25:08;;;;;;;3.15;2.40;;;;;;;;;;5076614;28;20029;-62
2024/02/18 11:27:36;;;;;;;2.83;2.38;;;;;;;;;;5080884;28;20024;-63
2024/02/18 11:30:04;;;;;;;5.30;2.33;;;;;;;;;;5074146;28;20013;-62
2024/02/18 11:32:31;;;;;;;2.85;1.70;;;;;;;;;;5111034;27;20024;-62
2024/02/18 11:35:06;;;;;;;6.97;2.28;;;;;;;;;;5078786;28;20032;-62
2024/02/18 11:37:36;;;;;;;2.72;2.13;;;;;;;;;;5066618;28;20037;-62
2024/02/18 11:40:10;;;;;;;3.20;2.17;;;;;;;;;;5074639;28;20581;-62
2024/02/18 11:42:39;;;;;;;3.55;1.88;;;;;;;;;;5074056;28;20087;-62
2024/02/18 11:45:11;;;;;;;4.05;2.60;;;;;;;;;;5079791;28;20051;-62
2024/02/18 11:47:47;;;;;;;3.22;2.03;;;;;;;;;;5075293;28;20379;-62
2024/02/18 11:50:14;;;;;;;2.45;1.60;;;;;;;;;;5073389;28;20035;-63
2024/02/18 11:52:44;;;;;;;3.00;2.17;;;;;;;;;;5092494;28;20353;-62
2024/02/18 11:55:11;;;;;;;5.15;1.92;;;;;;;;;;5077713;28;20474;-62
2024/02/18 11:57:38;;;;;;;6.28;2.40;;;;;;;;;;5067345;28;20120;-62
2024/02/18 12:00:05;;;;;;;2.42;2.03;;;;;;;;;;5067507;28;20024;-62
2024/02/18 12:02:31;;;;;;;7.43;2.42;;;;;;;;;;5072486;28;20591;-63
2024/02/18 12:04:57;;;;;;;3.17;1.73;;;;;;;;;;5072678;28;20116;-62
2024/02/18 12:07:27;;;;;;;5.80;2.13;;;;;;;;;;5069684;28;20082;-61
2024/02/18 12:09:53;;;;;;;4.85;2.13;;;;;;;;;;5073139;28;20047;-61
2024/02/18 12:12:20;;;;;;;2.95;1.70;;;;;;;;;;5071959;28;20024;-62
2024/02/18 12:14:55;;;;;;;4.60;1.95;;;;;;;;;;5074211;28;20512;-62
2024/02/18 12:17:22;;;;;;;5.00;2.30;;;;;;;;;;5063884;28;20021;-61
2024/02/18 12:19:49;;;;;;;4.05;2.58;;;;;;;;;;5078829;28;20077;-62
2024/02/18 12:22:22;;;;;;;4.65;2.42;;;;;;;;;;5075578;28;20034;-62
2024/02/18 12:24:52;;;;;;;5.13;2.13;;;;;;;;;;5071169;28;20028;-61
2024/02/18 12:27:19;;;;;;;4.93;2.40;;;;;;;;;;5072987;28;20032;-61
2024/02/18 12:29:49;;;;;;;7.28;2.20;;;;;;;;;;5076308;28;20062;-63
2024/02/18 12:32:15;;;;;;;9.55;2.85;;;;;;;;;;5074204;28;20140;-61
2024/02/18 12:34:42;;;;;;;3.95;1.98;;;;;;;;;;5061254;28;20033;-61
2024/02/18 12:37:09;;;;;;;6.35;2.35;;;;;;;;;;5076310;28;20055;-61
2024/02/18 12:39:35;;;;;;;5.18;1.80;;;;;;;;;;5073285;28;20039;-62
2024/02/18 12:42:02;;;;;;;7.07;2.30;;;;;;;;;;5065130;28;20039;-61
2024/02/18 12:44:28;;;;;;;5.75;2.00;;;;;;;;;;5068307;28;20033;-61
2024/02/18 12:46:58;;;;;;;2.63;1.58;;;;;;;;;;5067624;28;20020;-61
2024/02/18 12:49:27;;;;;;;6.20;2.08;;;;;;;;;;5067519;28;20138;-62
2024/02/18 12:52:02;;;;;;;1.73;1.58;;;;;;;;;;5054585;28;20587;-61
2024/02/18 12:54:28;;;;;;;;;;;;;;;;;;5069753;28;20028;-61
2024/02/18 12:56:55;;;;;;;5.82;2.22;;;;;;;;;;5062078;28;19919;-61
2024/02/18 12:59:21;;;;;;;6.13;2.03;;;;;;;;;;5057560;28;20037;-60
2024/02/18 13:01:47;;;;;;;4.85;1.70;;;;;;;;;;5040917;28;20220;-62
2024/02/18 13:04:14;;;;;;;3.33;2.08;;;;;;;;;;5059818;28;20083;-62
2024/02/18 13:06:42;;;;;;;5.65;2.80;;;;;;;;;;5063081;28;20025;-60
2024/02/18 13:09:08;;;;;;;2.92;2.17;;;;;;;;;;5063223;28;20028;-60
2024/02/18 13:11:35;;;;;;;4.10;2.05;;;;;;;;;;5076656;28;20396;-60
2024/02/18 13:14:02;;;;;;;3.67;2.42;;;;;;;;;;5055016;28;20059;-61
2024/02/18 13:16:28;;;;;;;3.92;2.25;;;;;;;;;;5059721;28;20031;-63
2024/02/18 13:18:54;;;;;;;6.53;2.00;;;;;;;;;;5061045;28;20029;-62
2024/02/18 13:21:23;;;;;;;12.50;2.42;;;;;;;;;;5054933;28;20028;-60
2024/02/18 13:23:50;;;;;;;4.88;2.28;;;;;;;;;;5055626;28;20048;-62
2024/02/18 13:26:20;;;;;;;3.92;2.17;;;;;;;;;;5058482;28;20029;-61
2024/02/18 13:28:47;;;;;;;3.33;1.88;;;;;;;;;;5056223;28;20061;-62
2024/02/18 13:31:14;;;;;;;2.63;1.90;;;;;;;;;;5056847;28;20032;-62
2024/02/18 13:33:41;;;;;;;3.25;1.50;;;;;;;;;;5054069;28;20464;-61
2024/02/18 13:36:08;;;;;;;2.42;1.50;;;;;;;;;;5059997;28;20411;-62
2024/02/18 13:38:35;;;;;;;1.95;1.50;;;;;;;;;;5052571;28;20029;-62
2024/02/18 13:41:02;;;;;;;5.90;2.08;;;;;;;;;;5059363;28;20028;-62
2024/02/18 13:43:30;;;;;;;3.05;1.67;;;;;;;;;;5057385;28;20024;-62
2024/02/18 13:45:56;;;;;;;5.18;2.55;;;;;;;;;;5063457;28;20476;-62
2024/02/18 13:48:22;;;;;;;2.50;2.08;;;;;;;;;;5058894;28;20056;-62
2024/02/18 13:50:49;;;;;;;5.07;2.05;;;;;;;;;;5057484;28;20032;-61
2024/02/18 13:53:16;;;;;;;4.00;2.22;;;;;;;;;;5051768;28;20455;-62
2024/02/18 13:55:42;;;;;;;3.45;1.90;;;;;;;;;;5054209;28;20020;-62
2024/02/18 13:58:08;;;;;;;9.75;2.30;;;;;;;;;;5054615;28;20036;-63
2024/02/18 14:00:34;;;;;;;7.30;2.00;;;;;;;;;;5056138;28;20040;-61
2024/02/18 14:03:01;;;;;;;4.57;2.28;;;;;;;;;;5067080;28;20110;-62
2024/02/18 14:05:27;;;;;;;4.35;2.20;;;;;;;;;;5054016;28;20500;-62
2024/02/18 14:07:53;;;;;;;4.38;2.22;;;;;;;;;;5057499;28;20115;-61
2024/02/18 14:10:21;;;;;;;5.82;2.13;;;;;;;;;;5054310;28;20028;-61
2024/02/18 14:12:47;;;;;;;2.17;1.80;;;;;;;;;;5052040;28;20048;-62
2024/02/18 14:15:13;;;;;;;4.63;2.33;;;;;;;;;;5067121;28;20033;-62
2024/02/18 14:17:43;;;;;;;2.83;1.58;;;;;;;;;;5079728;28;20039;-62
2024/02/18 14:20:10;;;;;;;5.78;2.47;;;;;;;;;;5059536;28;20029;-61
2024/02/18 14:22:37;;;;;;;2.42;1.95;;;;;;;;;;5063499;28;20028;-61
2024/02/18 14:25:05;;;;;;;4.40;2.60;;;;;;;;;;5063395;28;20025;-63
2024/02/18 14:27:31;;;;;;;2.28;1.73;;;;;;;;;;5055595;28;20103;-61
2024/02/18 14:29:57;;;;;;;2.10;1.67;;;;;;;;;;5061614;28;20033;-64
2024/02/18 14:32:24;;;;;;;2.53;1.67;;;;;;;;;;5063693;28;20420;-65
2024/02/18 14:34:53;;;;;;;4.53;1.90;;;;;;;;;;5055090;28;20032;-62
2024/02/18 14:37:20;;;;;;;4.10;1.92;;;;;;;;;;5059883;28;20585;-62